createdAt,value
2023-05-19T00:00:14.970Z,4.00
2023-05-19T00:03:22.003Z,4.50
2023-05-19T00:06:26.995Z,4.00
2023-05-19T00:09:32.566Z,3.50
2023-05-19T00:12:37.390Z,2.50
2023-05-19T00:15:41.685Z,0.00
2023-05-19T00:18:45.420Z,1.00
2023-05-19T00:21:49.123Z,4.00
2023-05-19T00:24:54.057Z,3.75
2023-05-19T00:27:59.360Z,3.00
2023-05-19T00:31:03.608Z,2.00
2023-05-19T00:34:07.363Z,4.00
2023-05-19T00:37:11.492Z,1.50
2023-05-19T00:40:17.472Z,0.25
2023-05-19T00:43:21.296Z,4.00
2023-05-19T00:46:26.496Z,2.00
2023-05-19T00:49:30.252Z,1.00
2023-05-19T00:52:34.157Z,3.00
2023-05-19T00:55:40.839Z,1.00
2023-05-19T00:58:45.784Z,4.00
2023-05-19T01:01:52.204Z,2.50
2023-05-19T01:04:57.894Z,3.00
2023-05-19T01:08:01.776Z,4.00
2023-05-19T01:11:08.066Z,1.00
2023-05-19T01:14:11.607Z,1.00
2023-05-19T01:17:23.434Z,0.00
2023-05-19T01:20:36.513Z,1.00
2023-05-19T01:23:54.319Z,1.00
2023-05-19T01:27:42.519Z,0.75
2023-05-19T01:30:52.832Z,0.00
2023-05-19T01:33:57.134Z,1.00
2023-05-19T01:37:03.041Z,1.00
2023-05-19T01:40:09.377Z,0.00
2023-05-19T01:43:15.257Z,1.00
2023-05-19T01:46:23.491Z,0.50
2023-05-19T01:49:27.094Z,1.00
2023-05-19T01:52:30.784Z,0.00
2023-05-19T01:55:34.590Z,0.25
2023-05-19T01:58:45.836Z,0.50
2023-05-19T02:01:56.498Z,1.00
2023-05-19T02:05:10.149Z,0.00
2023-05-19T02:08:18.291Z,0.00
2023-05-19T02:11:28.735Z,0.00
2023-05-19T02:14:40.607Z,0.00
2023-05-19T02:17:48.520Z,0.00
2023-05-19T02:20:52.496Z,1.00
2023-05-19T02:23:56.125Z,1.00
2023-05-19T02:26:59.787Z,1.00
2023-05-19T02:30:03.909Z,0.25
2023-05-19T02:33:11.530Z,0.75
2023-05-19T02:36:15.274Z,0.50
2023-05-19T02:39:18.821Z,0.00
2023-05-19T02:42:24.335Z,0.25
2023-05-19T02:45:28.885Z,0.00
2023-05-19T02:48:35.960Z,0.75
2023-05-19T02:51:40.248Z,0.00
2023-05-19T02:54:44.359Z,0.00
2023-05-19T02:57:48.319Z,1.00
2023-05-19T03:00:52.406Z,0.00
2023-05-19T03:03:57.620Z,0.00
2023-05-19T03:07:02.271Z,1.00
2023-05-19T03:10:06.899Z,0.25
2023-05-19T03:13:10.876Z,1.00
2023-05-19T03:16:17.287Z,4.00
2023-05-19T03:19:22.948Z,3.00
2023-05-19T03:22:26.752Z,3.50
2023-05-19T03:25:30.821Z,4.00
2023-05-19T03:28:36.914Z,3.00
2023-05-19T03:31:40.399Z,3.75
2023-05-19T03:34:45.369Z,5.00
2023-05-19T03:37:51.325Z,3.00
2023-05-19T03:40:54.905Z,2.50
2023-05-19T03:43:59.106Z,1.00
2023-05-19T03:47:02.529Z,4.00
2023-05-19T03:50:35.376Z,3.75
2023-05-19T03:53:49.832Z,2.00
2023-05-19T03:56:53.383Z,6.00
2023-05-19T03:59:56.885Z,3.75
2023-05-19T04:03:01.528Z,6.75
2023-05-19T04:06:06.628Z,7.00
2023-05-19T04:09:14.195Z,6.00
2023-05-19T04:12:17.874Z,6.50
2023-05-19T04:15:22.171Z,5.00
2023-05-19T04:18:27.597Z,2.00
2023-05-19T04:21:33.837Z,0.00
2023-05-19T04:24:37.328Z,4.00
2023-05-19T04:27:41.590Z,5.00
2023-05-19T04:30:46.786Z,3.25
2023-05-19T04:33:50.292Z,7.00
2023-05-19T04:36:55.771Z,9.00
2023-05-19T04:39:59.512Z,2.50
2023-05-19T04:43:04.066Z,4.00
2023-05-19T04:46:12.219Z,6.00
2023-05-19T04:49:19.367Z,6.50
2023-05-19T04:52:24.325Z,6.00
2023-05-19T04:55:28.136Z,8.50
2023-05-19T04:58:31.572Z,12.25
2023-05-19T05:01:40.363Z,9.50
2023-05-19T05:04:46.661Z,5.00
2023-05-19T05:07:54.287Z,8.00
2023-05-19T05:11:00.542Z,9.25
2023-05-19T05:14:04.586Z,9.75
2023-05-19T05:17:10.586Z,10.00
2023-05-19T05:20:15.241Z,9.75
2023-05-19T05:23:21.155Z,6.25
2023-05-19T05:26:31.421Z,3.75
2023-05-19T05:29:34.900Z,3.25
2023-05-19T05:32:40.605Z,1.50
2023-05-19T05:35:51.705Z,3.00
2023-05-19T05:38:56.940Z,4.00
2023-05-19T05:42:01.407Z,4.00
2023-05-19T05:45:05.483Z,4.50
2023-05-19T05:48:09.923Z,5.00
2023-05-19T05:51:13.881Z,3.00
2023-05-19T05:54:23.024Z,3.25
2023-05-19T05:57:27.087Z,3.00
2023-05-19T06:00:30.882Z,3.25
2023-05-19T06:03:34.595Z,3.00
2023-05-19T06:06:43.283Z,1.00
2023-05-19T06:09:50.190Z,3.00
2023-05-19T06:12:53.881Z,3.25
2023-05-19T06:16:00.419Z,3.00
2023-05-19T06:19:13.204Z,2.50
2023-05-19T06:22:17.012Z,6.00
2023-05-19T06:25:23.029Z,3.00
2023-05-19T06:28:26.698Z,6.75
2023-05-19T06:31:31.847Z,6.25
2023-05-19T06:34:42.375Z,6.00
2023-05-19T06:37:46.408Z,3.50
2023-05-19T06:40:51.300Z,5.25
2023-05-19T06:43:55.165Z,7.50
2023-05-19T06:46:58.712Z,6.50
2023-05-19T06:50:02.288Z,6.50
2023-05-19T06:53:09.619Z,9.50
2023-05-19T06:56:15.087Z,12.25
2023-05-19T06:59:21.888Z,12.00
2023-05-19T07:02:26.487Z,7.00
2023-05-19T07:05:30.594Z,6.25
2023-05-19T07:08:37.413Z,9.00
2023-05-19T07:11:44.078Z,9.00
2023-05-19T07:14:48.069Z,9.00
2023-05-19T07:17:53.209Z,9.00
2023-05-19T07:20:58.059Z,9.75
2023-05-19T07:24:01.952Z,9.50
2023-05-19T07:27:07.541Z,10.00
2023-05-19T07:30:11.739Z,9.00
2023-05-19T07:33:15.305Z,9.25
2023-05-19T07:36:18.909Z,7.00
2023-05-19T07:39:22.595Z,7.50
2023-05-19T07:42:28.179Z,7.00
2023-05-19T07:45:31.705Z,11.50
2023-05-19T07:48:35.495Z,9.75
2023-05-19T07:51:39.096Z,5.00
2023-05-19T07:54:42.650Z,12.00
2023-05-19T07:57:47.515Z,7.50
2023-05-19T08:00:51.074Z,8.50
2023-05-19T08:03:54.837Z,8.50
2023-05-19T08:06:58.395Z,8.00
2023-05-19T08:10:02.189Z,9.50
2023-05-19T08:13:07.411Z,6.50
2023-05-19T08:16:11.265Z,12.00
2023-05-19T08:19:14.839Z,10.50
2023-05-19T08:22:18.597Z,7.50
2023-05-19T08:25:22.515Z,10.00
2023-05-19T08:28:27.505Z,7.00
2023-05-19T08:31:31.235Z,6.75
2023-05-19T08:34:34.988Z,8.50
2023-05-19T08:37:38.793Z,9.00
2023-05-19T08:40:44.184Z,6.25
2023-05-19T08:43:50.122Z,6.00
2023-05-19T08:46:56.260Z,9.75
2023-05-19T08:50:07.841Z,10.00
2023-05-19T08:53:31.912Z,9.00
2023-05-19T08:56:36.824Z,6.50
2023-05-19T08:59:42.884Z,6.75
2023-05-19T09:02:55.455Z,6.25
2023-05-19T09:06:09.999Z,7.50
2023-05-19T09:09:15.693Z,9.00
2023-05-19T09:12:19.549Z,9.50
2023-05-19T09:15:28.548Z,8.00
2023-05-19T09:18:32.841Z,7.00
2023-05-19T09:21:36.805Z,9.00
2023-05-19T09:24:40.822Z,8.00
2023-05-19T09:27:44.252Z,9.00
2023-05-19T09:30:49.244Z,6.50
2023-05-19T09:33:55.550Z,7.00
2023-05-19T09:37:00.129Z,7.50
2023-05-19T09:40:06.468Z,7.00
2023-05-19T09:43:10.199Z,7.25
2023-05-19T09:46:15.957Z,9.25
2023-05-19T09:49:23.573Z,9.00
2023-05-19T09:52:27.643Z,10.00
2023-05-19T09:55:33.300Z,8.50
2023-05-19T09:58:37.175Z,5.50
2023-05-19T10:01:46.558Z,9.00
2023-05-19T10:04:51.346Z,7.00
2023-05-19T10:07:59.078Z,7.33
2023-05-19T10:11:03.689Z,8.00
2023-05-19T10:14:07.474Z,1.00
2023-05-19T10:17:13.926Z,9.00
2023-05-19T10:20:18.661Z,9.00
2023-05-19T10:23:22.720Z,6.33
2023-05-19T10:26:27.547Z,8.33
2023-05-19T10:29:35.633Z,6.00
2023-05-19T10:32:44.300Z,10.67
2023-05-19T10:36:11.363Z,7.67
2023-05-19T10:39:23.439Z,9.00
2023-05-19T10:42:36.555Z,11.33
2023-05-19T10:45:47.493Z,7.00
2023-05-19T10:48:53.754Z,7.00
2023-05-19T10:52:00.858Z,7.00
2023-05-19T10:55:09.027Z,5.33
2023-05-19T10:58:13.128Z,7.00
2023-05-19T11:01:18.096Z,11.33
2023-05-19T11:04:49.515Z,9.00
2023-05-19T11:08:02.290Z,10.00
2023-05-19T11:11:15.417Z,6.00
2023-05-19T11:14:20.309Z,7.00
2023-05-19T11:17:27.533Z,7.00
2023-05-19T11:20:35.172Z,8.33
2023-05-19T11:23:40.981Z,9.00
2023-05-19T11:26:44.914Z,7.00
2023-05-19T11:29:49.685Z,9.00
2023-05-19T11:32:55.610Z,10.00
2023-05-19T11:36:00.784Z,6.67
2023-05-19T11:39:05.012Z,9.00
2023-05-19T11:42:10.852Z,10.67
2023-05-19T11:45:14.538Z,9.00
2023-05-19T11:48:18.901Z,7.00
2023-05-19T11:51:24.624Z,7.00
2023-05-19T11:54:32.363Z,7.67
2023-05-19T11:57:36.618Z,9.67
2023-05-19T12:00:41.665Z,3.00
2023-05-19T12:03:45.387Z,1.67
2023-05-19T12:06:52.431Z,6.00
2023-05-19T12:09:58.288Z,8.00
2023-05-19T12:13:02.269Z,6.33
2023-05-19T12:16:06.081Z,4.33
2023-05-19T12:19:10.570Z,6.67
2023-05-19T12:22:17.419Z,7.00
2023-05-19T12:25:21.974Z,5.33
2023-05-19T12:28:25.476Z,7.00
2023-05-19T12:31:29.195Z,10.00
2023-05-19T12:34:32.870Z,4.00
2023-05-19T12:37:42.538Z,7.67
2023-05-19T12:40:45.988Z,12.67
2023-05-19T12:43:49.605Z,9.33
2023-05-19T12:46:53.922Z,7.67
2023-05-19T12:49:58.435Z,4.00
2023-05-19T12:53:03.542Z,7.67
2023-05-19T12:56:14.108Z,5.33
2023-05-19T12:59:34.800Z,11.67
2023-05-19T13:02:57.344Z,7.67
2023-05-19T13:06:01.049Z,9.67
2023-05-19T13:09:11.735Z,11.33
2023-05-19T13:12:15.309Z,5.67
2023-05-19T13:15:19.266Z,11.00
2023-05-19T13:18:25.877Z,10.67
2023-05-19T13:21:30.618Z,9.33
2023-05-19T13:24:36.053Z,10.33
2023-05-19T13:27:39.629Z,8.67
2023-05-19T13:30:46.843Z,11.00
2023-05-19T13:33:50.386Z,13.00
2023-05-19T13:36:54.181Z,10.00
2023-05-19T13:39:59.546Z,8.00
2023-05-19T13:43:03.596Z,10.67
2023-05-19T13:46:07.754Z,12.33
2023-05-19T13:49:13.144Z,11.67
2023-05-19T13:52:17.338Z,17.33
2023-05-19T13:55:23.352Z,8.00
2023-05-19T13:58:30.749Z,14.33
2023-05-19T14:01:34.948Z,14.00
2023-05-19T14:04:39.311Z,8.33
2023-05-19T14:07:46.447Z,14.33
2023-05-19T14:10:52.123Z,15.33
2023-05-19T14:13:56.376Z,13.00
2023-05-19T14:17:02.997Z,12.00
2023-05-19T14:20:07.779Z,9.33
2023-05-19T14:23:11.822Z,11.00
2023-05-19T14:26:25.619Z,19.33
2023-05-19T14:29:31.372Z,15.00
2023-05-19T14:32:35.221Z,8.67
2023-05-19T14:35:41.642Z,17.00
2023-05-19T14:38:45.465Z,13.00
2023-05-19T14:41:53.175Z,18.67
2023-05-19T14:44:57.062Z,7.67
2023-05-19T14:48:00.639Z,19.00
2023-05-19T14:51:04.134Z,16.00
2023-05-19T14:54:08.891Z,16.00
2023-05-19T14:57:14.243Z,16.67
2023-05-19T15:00:19.102Z,22.67
2023-05-19T15:03:23.375Z,16.33
2023-05-19T15:06:27.045Z,12.33
2023-05-19T15:09:30.819Z,18.00
2023-05-19T15:12:36.343Z,16.00
2023-05-19T15:15:39.838Z,21.00
2023-05-19T15:18:43.649Z,13.00
2023-05-19T15:21:47.368Z,21.75
2023-05-19T15:24:50.915Z,18.00
2023-05-19T15:27:56.286Z,21.00
2023-05-19T15:31:00.009Z,15.33
2023-05-19T15:34:03.464Z,21.67
2023-05-19T15:37:07.287Z,21.67
2023-05-19T15:40:13.770Z,20.33
2023-05-19T15:43:20.102Z,19.50
2023-05-19T15:46:23.655Z,22.50
2023-05-19T15:49:27.472Z,18.50
2023-05-19T15:52:30.947Z,9.25
2023-05-19T15:55:35.005Z,22.75
2023-05-19T15:58:43.659Z,18.50
2023-05-19T16:01:47.469Z,23.75
2023-05-19T16:04:51.096Z,18.25
2023-05-19T16:07:54.576Z,16.67
2023-05-19T16:10:58.316Z,18.33
2023-05-19T16:14:03.332Z,12.33
2023-05-19T16:17:12.334Z,17.00
2023-05-19T16:20:15.939Z,9.00
2023-05-19T16:23:19.564Z,18.75
2023-05-19T16:26:23.250Z,19.00
2023-05-19T16:29:28.221Z,14.00
2023-05-19T16:32:31.708Z,12.00
2023-05-19T16:35:36.506Z,15.67
2023-05-19T16:38:39.960Z,13.00
2023-05-19T16:41:43.558Z,17.33
2023-05-19T16:44:48.358Z,15.67
2023-05-19T16:47:54.066Z,12.00
2023-05-19T16:50:58.129Z,12.00
2023-05-19T16:54:01.711Z,17.33
2023-05-19T16:57:07.548Z,9.33
2023-05-19T17:00:14.979Z,15.00
2023-05-19T17:03:18.619Z,13.00
2023-05-19T17:06:22.416Z,15.67
2023-05-19T17:09:26.555Z,11.00
2023-05-19T17:12:30.186Z,19.25
2023-05-19T17:15:35.611Z,22.25
2023-05-19T17:18:39.632Z,22.50
2023-05-19T17:21:43.309Z,15.50
2023-05-19T17:24:47.363Z,21.50
2023-05-19T17:27:59.677Z,20.75
2023-05-19T17:31:11.015Z,17.00
2023-05-19T17:34:15.528Z,18.00
2023-05-19T17:37:23.542Z,16.00
2023-05-19T17:40:27.176Z,17.50
2023-05-19T17:43:30.890Z,19.50
2023-05-19T17:46:37.044Z,23.00
2023-05-19T17:49:41.541Z,20.50
2023-05-19T17:52:45.770Z,19.00
2023-05-19T17:55:53.256Z,21.00
2023-05-19T17:59:00.126Z,16.00
2023-05-19T18:02:06.120Z,19.50
2023-05-19T18:05:15.693Z,19.00
2023-05-19T18:08:20.121Z,19.25
2023-05-19T18:11:27.539Z,17.00
2023-05-19T18:14:31.209Z,22.00
2023-05-19T18:17:37.572Z,16.00
2023-05-19T18:20:44.387Z,19.00
2023-05-19T18:23:52.125Z,28.00
2023-05-19T18:26:55.672Z,20.50
2023-05-19T18:29:59.549Z,21.25
2023-05-19T18:33:04.797Z,23.00
2023-05-19T18:36:09.407Z,24.50
2023-05-19T18:39:15.832Z,22.50
2023-05-19T18:42:19.524Z,24.25
2023-05-19T18:45:25.463Z,21.00
2023-05-19T18:48:31.438Z,23.50
2023-05-19T18:51:36.322Z,23.75
2023-05-19T18:54:42.136Z,24.50
2023-05-19T18:57:46.248Z,18.75
2023-05-19T19:00:51.903Z,21.50
2023-05-19T19:03:56.965Z,20.50
2023-05-19T19:07:00.493Z,28.00
2023-05-19T19:10:04.142Z,26.50
2023-05-19T19:13:07.722Z,22.50
2023-05-19T19:16:11.245Z,21.00
2023-05-19T19:19:17.003Z,21.25
2023-05-19T19:22:27.942Z,18.75
2023-05-19T19:25:31.477Z,22.50
2023-05-19T19:28:35.524Z,22.00
2023-05-19T19:31:39.023Z,19.00
2023-05-19T19:34:47.027Z,18.75
2023-05-19T19:37:53.237Z,22.00
2023-05-19T19:40:57.254Z,22.50
2023-05-19T19:44:00.700Z,19.00
2023-05-19T19:47:07.106Z,18.50
2023-05-19T19:50:15.766Z,21.50
2023-05-19T19:53:19.281Z,15.75
2023-05-19T19:56:27.656Z,20.25
2023-05-19T19:59:31.597Z,17.50
2023-05-19T20:02:41.016Z,25.50
2023-05-19T20:05:57.918Z,18.00
2023-05-19T20:09:06.916Z,19.00
2023-05-19T20:12:13.825Z,20.50
2023-05-19T20:15:17.846Z,18.50
2023-05-19T20:18:21.539Z,20.75
2023-05-19T20:21:29.079Z,15.50
2023-05-19T20:24:32.999Z,23.50
2023-05-19T20:27:36.573Z,16.00
2023-05-19T20:30:42.929Z,17.75
2023-05-19T20:33:49.630Z,23.50
2023-05-19T20:36:55.583Z,15.00
2023-05-19T20:40:01.959Z,19.00
2023-05-19T20:43:05.543Z,15.00
2023-05-19T20:46:11.666Z,17.50
2023-05-19T20:49:15.668Z,16.00
2023-05-19T20:52:21.204Z,16.50
2023-05-19T20:55:24.798Z,18.25
2023-05-19T20:58:30.412Z,16.50
2023-05-19T21:01:35.152Z,22.25
2023-05-19T21:04:39.858Z,21.00
2023-05-19T21:07:44.847Z,17.00
2023-05-19T21:10:49.155Z,15.25
2023-05-19T21:13:52.643Z,20.00
2023-05-19T21:16:57.945Z,21.50
2023-05-19T21:20:02.196Z,23.50
2023-05-19T21:24:03.256Z,18.00
2023-05-19T21:27:08.719Z,18.25
2023-05-19T21:30:13.660Z,19.50
2023-05-19T21:33:20.425Z,16.00
2023-05-19T21:36:26.497Z,22.00
2023-05-19T21:39:37.675Z,18.50
2023-05-19T21:42:43.046Z,20.00
2023-05-19T21:45:46.702Z,16.50
2023-05-19T21:48:53.088Z,21.00
2023-05-19T21:51:57.897Z,17.50
2023-05-19T21:55:03.303Z,18.50
2023-05-19T21:58:10.686Z,11.50
2023-05-19T22:01:14.460Z,18.00
2023-05-19T22:04:18.812Z,22.50
2023-05-19T22:07:27.133Z,17.50
2023-05-19T22:10:33.138Z,19.00
2023-05-19T22:13:41.349Z,18.50
2023-05-19T22:16:45.116Z,19.50
2023-05-19T22:19:48.864Z,17.00
2023-05-19T22:22:52.693Z,20.25
2023-05-19T22:25:56.198Z,17.00
2023-05-19T22:29:01.744Z,18.00
2023-05-19T22:32:06.390Z,18.50
2023-05-19T22:35:12.477Z,12.75
2023-05-19T22:38:15.927Z,18.75
2023-05-19T22:41:19.566Z,22.25
2023-05-19T22:44:24.499Z,22.00
2023-05-19T22:47:30.109Z,21.75
2023-05-19T22:50:35.396Z,21.00
2023-05-19T22:53:39.202Z,18.25
2023-05-19T22:56:46.373Z,18.25
2023-05-19T22:59:52.302Z,16.00
2023-05-19T23:02:56.106Z,16.50
2023-05-19T23:06:00.218Z,19.00
2023-05-19T23:09:04.509Z,18.75
2023-05-19T23:12:08.663Z,10.50
2023-05-19T23:15:14.096Z,19.00
2023-05-19T23:18:17.949Z,19.75
2023-05-19T23:21:21.901Z,24.00
2023-05-19T23:24:25.889Z,15.75
2023-05-19T23:27:29.809Z,24.75
2023-05-19T23:30:38.457Z,22.00
2023-05-19T23:33:42.077Z,18.75
2023-05-19T23:36:45.730Z,24.00
2023-05-19T23:39:49.125Z,24.50
2023-05-19T23:42:52.770Z,23.50
2023-05-19T23:45:58.165Z,24.75
2023-05-19T23:49:02.177Z,21.00
2023-05-19T23:52:06.034Z,23.75
2023-05-19T23:55:12.752Z,26.75
2023-05-19T23:58:16.734Z,21.25
